KMSC/MSC METAR and TAF weather

Enter ICAO airport designator
Station Type Date Time Source
KMSC METAR UTC NOAA

Error!


Station Type Date Time Source
KMSC Decoded METAR UTC NOAA

Error!

Station Type Date Time Source
KMSC TAF 2015/06/25 23:44 UTC NOAA

 000 SAHW31 KMSC 242344 SPECI PHNY 242342Z AUTO 05010KT 10SM FEW010 BKN020 OVC041 23/22 A3004
RMK AO2 RAB12E39 P0001


Example: see airport list